createdAt,value
2018-07-19T00:02:02.604Z,22.60
2018-07-19T00:04:31.696Z,22.50
2018-07-19T00:07:00.648Z,22.50
2018-07-19T00:11:58.045Z,22.40
2018-07-19T00:14:26.959Z,22.40
2018-07-19T00:16:55.799Z,22.50
2018-07-19T00:21:53.206Z,22.40
2018-07-19T00:24:21.953Z,22.30
2018-07-19T00:26:50.790Z,22.30
2018-07-19T00:29:19.971Z,22.30
2018-07-19T00:31:48.754Z,22.30
2018-07-19T00:34:17.532Z,22.10
2018-07-19T00:36:46.304Z,22.10
2018-07-19T00:39:15.167Z,22.10
2018-07-19T00:41:45.436Z,22.10
2018-07-19T00:46:44.901Z,22.00
2018-07-19T00:49:13.712Z,22.00
2018-07-19T00:51:42.497Z,22.00
2018-07-19T00:54:11.294Z,22.00
2018-07-19T00:56:40.088Z,22.00
2018-07-19T00:59:08.850Z,22.10
2018-07-19T01:01:37.668Z,21.90
2018-07-19T01:04:06.546Z,21.90
2018-07-19T01:06:35.340Z,21.80
2018-07-19T01:09:06.535Z,21.80
2018-07-19T01:11:35.342Z,21.90
2018-07-19T01:14:04.109Z,21.80
2018-07-19T01:16:32.916Z,21.80
2018-07-19T01:19:02.065Z,21.80
2018-07-19T01:21:31.122Z,21.80
2018-07-19T01:23:59.871Z,21.70
2018-07-19T01:26:28.627Z,21.70
2018-07-19T01:28:57.375Z,21.70
2018-07-19T01:31:26.238Z,21.60
2018-07-19T01:33:55.023Z,21.70
2018-07-19T01:36:23.902Z,21.60
2018-07-19T01:38:52.766Z,21.60
2018-07-19T01:41:32.985Z,21.60
2018-07-19T01:44:01.860Z,21.60
2018-07-19T01:46:30.633Z,21.40
2018-07-19T01:53:56.980Z,21.30
2018-07-19T01:56:25.781Z,21.40
2018-07-19T01:58:54.633Z,21.40
2018-07-19T02:01:23.433Z,21.50
2018-07-19T02:03:52.183Z,21.40
2018-07-19T02:06:21.026Z,21.40
2018-07-19T02:08:49.840Z,21.40
2018-07-19T02:13:47.137Z,21.40
2018-07-19T02:16:15.950Z,21.40
2018-07-19T02:18:44.939Z,21.40
2018-07-19T02:21:13.692Z,21.40
2018-07-19T02:23:42.502Z,21.30
2018-07-19T02:26:11.246Z,21.20
2018-07-19T02:28:40.235Z,21.10
2018-07-19T02:33:37.650Z,21.20
2018-07-19T02:36:06.485Z,21.10
2018-07-19T02:38:35.301Z,21.10
2018-07-19T02:41:04.088Z,21.10
2018-07-19T02:43:32.855Z,21.10
2018-07-19T02:46:01.761Z,21.20
2018-07-19T02:48:30.528Z,21.10
2018-07-19T02:50:59.282Z,21.00
2018-07-19T02:53:28.145Z,21.10
2018-07-19T02:58:25.639Z,21.00
2018-07-19T03:00:54.525Z,21.00
2018-07-19T03:03:23.331Z,21.00
2018-07-19T03:05:52.120Z,21.00
2018-07-19T03:08:21.044Z,21.00
2018-07-19T03:10:49.880Z,20.90
2018-07-19T03:13:18.675Z,20.80
2018-07-19T03:15:47.482Z,20.90
2018-07-19T03:18:16.289Z,21.00
2018-07-19T03:20:45.078Z,20.90
2018-07-19T03:23:13.869Z,20.90
2018-07-19T03:25:42.897Z,20.90
2018-07-19T03:28:11.675Z,20.80
2018-07-19T03:30:40.511Z,20.90
2018-07-19T03:33:09.463Z,20.80
2018-07-19T03:35:38.360Z,20.80
2018-07-19T03:38:07.141Z,20.70
2018-07-19T03:40:36.198Z,20.80
2018-07-19T03:43:05.316Z,20.70
2018-07-19T03:45:34.276Z,20.70
2018-07-19T03:48:03.107Z,20.70
2018-07-19T03:50:32.070Z,20.60
2018-07-19T03:53:00.827Z,20.60
2018-07-19T03:55:29.666Z,20.60
2018-07-19T03:57:58.579Z,20.60
2018-07-19T04:00:27.982Z,20.60
2018-07-19T04:02:56.822Z,20.50
2018-07-19T04:05:25.670Z,20.50
2018-07-19T04:07:54.503Z,20.40
2018-07-19T04:10:23.308Z,20.40
2018-07-19T04:12:52.600Z,20.40
2018-07-19T04:15:21.517Z,20.40
2018-07-19T04:17:54.364Z,20.40
2018-07-19T04:20:25.594Z,20.50
2018-07-19T04:22:55.370Z,20.40
2018-07-19T04:25:24.720Z,20.40
2018-07-19T04:27:54.531Z,20.50
2018-07-19T04:30:23.327Z,20.40
2018-07-19T04:32:52.189Z,20.40
2018-07-19T04:37:50.194Z,20.50
2018-07-19T04:40:19.116Z,20.50
2018-07-19T04:42:48.247Z,20.50
2018-07-19T04:45:17.077Z,20.50
2018-07-19T04:47:46.159Z,20.60
2018-07-19T04:50:14.941Z,20.50
2018-07-19T04:52:43.771Z,20.50
2018-07-19T04:55:12.842Z,20.50
2018-07-19T05:00:10.047Z,20.60
2018-07-19T05:02:38.867Z,20.60
2018-07-19T05:05:07.704Z,20.70
2018-07-19T05:07:36.511Z,20.70
2018-07-19T05:10:05.263Z,20.80
2018-07-19T05:12:34.147Z,20.80
2018-07-19T05:15:02.957Z,20.90
2018-07-19T05:17:31.736Z,20.90
2018-07-19T05:20:00.480Z,20.80
2018-07-19T05:22:29.378Z,20.70
2018-07-19T05:24:58.137Z,20.80
2018-07-19T05:27:26.886Z,20.80
2018-07-19T05:29:55.643Z,20.80
2018-07-19T05:32:24.439Z,20.90
2018-07-19T05:34:53.195Z,20.80
2018-07-19T05:37:22.007Z,20.90
2018-07-19T05:39:50.788Z,20.90
2018-07-19T05:42:19.633Z,20.80
2018-07-19T05:44:48.410Z,20.80
2018-07-19T05:47:17.195Z,21.00
2018-07-19T05:49:45.951Z,20.80
2018-07-19T05:52:14.694Z,20.80
2018-07-19T05:54:43.550Z,20.80
2018-07-19T05:59:40.988Z,20.80
2018-07-19T06:02:09.817Z,20.80
2018-07-19T06:07:07.068Z,20.90
2018-07-19T06:09:35.859Z,20.90
2018-07-19T06:12:04.607Z,21.00
2018-07-19T06:14:33.446Z,21.10
2018-07-19T06:17:02.293Z,21.00
2018-07-19T06:19:31.075Z,21.00
2018-07-19T06:21:59.851Z,21.20
2018-07-19T06:24:28.622Z,21.10
2018-07-19T06:26:57.410Z,21.10
2018-07-19T06:31:55.007Z,21.10
2018-07-19T06:34:23.841Z,21.10
2018-07-19T06:36:52.603Z,21.10
2018-07-19T06:39:21.382Z,21.20
2018-07-19T06:41:50.159Z,21.20
2018-07-19T06:44:19.037Z,21.20
2018-07-19T06:46:47.802Z,21.30
2018-07-19T06:49:16.620Z,21.30
2018-07-19T06:51:45.427Z,21.40
2018-07-19T06:54:14.177Z,21.50
2018-07-19T07:01:39.858Z,21.70
2018-07-19T07:04:08.675Z,21.70
2018-07-19T07:06:37.438Z,21.60
2018-07-19T07:09:08.210Z,21.60
2018-07-19T07:11:37.021Z,21.50
2018-07-19T07:16:34.569Z,21.60
2018-07-19T07:19:03.339Z,21.70
2018-07-19T07:21:32.149Z,21.60
2018-07-19T07:24:01.010Z,21.50
2018-07-19T07:26:29.755Z,21.60
2018-07-19T07:28:58.572Z,21.60
2018-07-19T07:31:27.347Z,21.70
2018-07-19T07:36:24.592Z,21.80
2018-07-19T07:38:53.328Z,21.80
2018-07-19T07:43:50.554Z,21.80
2018-07-19T07:46:19.299Z,21.80
2018-07-19T07:48:48.160Z,21.80
2018-07-19T07:51:17.660Z,21.90
2018-07-19T07:53:46.406Z,21.90
2018-07-19T07:56:15.193Z,22.00
2018-07-19T07:58:43.933Z,22.00
2018-07-19T08:01:12.716Z,21.80
2018-07-19T08:03:41.497Z,21.70
2018-07-19T08:08:38.744Z,21.80
2018-07-19T08:11:07.610Z,21.80
2018-07-19T08:13:36.325Z,21.80
2018-07-19T08:16:05.198Z,21.80
2018-07-19T08:18:33.927Z,21.80
2018-07-19T08:21:02.726Z,21.80
2018-07-19T08:23:31.466Z,21.90
2018-07-19T08:26:00.313Z,21.80
2018-07-19T08:28:29.119Z,22.00
2018-07-19T08:30:57.898Z,22.00
2018-07-19T08:33:26.655Z,21.80
2018-07-19T08:35:55.489Z,21.80
2018-07-19T08:40:52.736Z,21.70
2018-07-19T08:43:21.863Z,21.70
2018-07-19T08:45:50.663Z,21.70
2018-07-19T08:48:19.474Z,21.70
2018-07-19T08:53:17.001Z,21.80
2018-07-19T08:55:45.871Z,21.80
2018-07-19T08:58:14.639Z,21.90
2018-07-19T09:03:11.911Z,21.90
2018-07-19T09:08:09.184Z,21.90
2018-07-19T09:13:06.493Z,22.00
2018-07-19T09:15:35.267Z,22.00
2018-07-19T09:18:04.168Z,22.00
2018-07-19T09:20:32.980Z,22.00
2018-07-19T09:23:01.805Z,22.10
2018-07-19T09:25:30.533Z,22.10
2018-07-19T09:27:59.350Z,22.10
2018-07-19T09:30:28.083Z,22.00
2018-07-19T09:35:25.484Z,22.00
2018-07-19T09:37:54.295Z,21.90
2018-07-19T09:40:23.260Z,21.90
2018-07-19T09:42:52.027Z,22.00
2018-07-19T09:47:49.321Z,22.20
2018-07-19T09:50:18.082Z,22.20
2018-07-19T09:57:43.963Z,22.00
2018-07-19T10:00:12.727Z,22.10
2018-07-19T10:05:09.966Z,22.10
2018-07-19T10:07:38.740Z,22.00
2018-07-19T10:10:07.475Z,22.10
2018-07-19T10:20:08.408Z,22.20
2018-07-19T10:22:37.215Z,22.20
2018-07-19T10:25:06.065Z,22.30
2018-07-19T10:27:34.917Z,22.20
2018-07-19T10:30:04.348Z,22.30
2018-07-19T10:32:33.138Z,22.30
2018-07-19T10:35:01.835Z,22.40
2018-07-19T10:37:30.624Z,22.50
2018-07-19T10:39:59.429Z,22.50
2018-07-19T10:42:28.542Z,22.50
2018-07-19T10:44:57.505Z,22.50
2018-07-19T10:47:26.263Z,22.60
2018-07-19T10:49:55.192Z,22.70
2018-07-19T10:52:23.952Z,22.80
2018-07-19T10:57:21.185Z,22.80
2018-07-19T10:59:49.850Z,22.80
2018-07-19T11:02:18.595Z,22.90
2018-07-19T11:04:47.327Z,23.00
2018-07-19T11:07:16.062Z,23.10
2018-07-19T11:12:13.353Z,23.00
2018-07-19T11:14:42.157Z,22.90
2018-07-19T11:17:10.934Z,22.90
2018-07-19T11:19:39.938Z,22.80
2018-07-19T11:22:09.078Z,22.80
2018-07-19T11:24:37.824Z,22.90
2018-07-19T11:27:06.541Z,22.90
2018-07-19T11:29:35.303Z,22.90
2018-07-19T11:32:04.095Z,22.90
2018-07-19T11:34:32.864Z,22.90
2018-07-19T11:37:01.595Z,22.90
2018-07-19T11:39:30.342Z,22.90
2018-07-19T11:41:59.124Z,22.90
2018-07-19T11:46:56.327Z,22.90
2018-07-19T11:49:25.191Z,23.00
2018-07-19T11:51:53.992Z,22.90
2018-07-19T11:54:22.739Z,22.80
2018-07-19T11:56:51.615Z,22.80
2018-07-19T11:59:20.379Z,22.90
2018-07-19T12:01:49.217Z,22.90
2018-07-19T12:04:17.914Z,22.90
2018-07-19T12:11:43.703Z,22.90
2018-07-19T12:14:12.470Z,22.90
2018-07-19T12:16:41.259Z,23.00
2018-07-19T12:19:10.068Z,23.00
2018-07-19T12:21:38.884Z,22.90
2018-07-19T12:24:07.692Z,22.90
2018-07-19T12:26:36.435Z,22.90
2018-07-19T12:29:05.200Z,22.90
2018-07-19T12:31:33.971Z,23.00
2018-07-19T12:36:31.370Z,23.10
2018-07-19T12:39:00.136Z,23.10
2018-07-19T12:43:57.425Z,23.20
2018-07-19T12:46:26.168Z,23.30
2018-07-19T12:48:54.924Z,23.40
2018-07-19T12:51:23.675Z,23.40
2018-07-19T12:53:52.490Z,23.40
2018-07-19T12:56:21.659Z,23.40
2018-07-19T12:58:50.457Z,23.30
2018-07-19T13:01:19.236Z,23.30
2018-07-19T13:06:16.479Z,23.30
2018-07-19T13:08:45.239Z,23.30
2018-07-19T13:11:13.995Z,23.30
2018-07-19T13:13:42.874Z,23.40
2018-07-19T13:21:08.675Z,23.40
2018-07-19T13:23:37.454Z,23.50
2018-07-19T13:26:06.237Z,23.50
2018-07-19T13:28:35.010Z,23.60
2018-07-19T13:31:03.872Z,23.60
2018-07-19T13:33:32.889Z,23.70
2018-07-19T13:36:01.820Z,23.80
2018-07-19T13:38:30.616Z,23.90
2018-07-19T13:40:59.416Z,23.90
2018-07-19T13:43:28.158Z,23.80
2018-07-19T13:45:56.920Z,23.90
2018-07-19T13:55:58.481Z,24.20
2018-07-19T13:58:27.305Z,24.20
2018-07-19T14:00:56.010Z,24.20
2018-07-19T14:03:25.077Z,24.30
2018-07-19T14:05:54.057Z,24.40
2018-07-19T14:08:23.096Z,24.50
2018-07-19T14:13:20.591Z,24.50
2018-07-19T14:15:49.697Z,24.40
2018-07-19T14:18:18.413Z,24.40
2018-07-19T14:20:47.217Z,24.30
2018-07-19T14:23:16.019Z,24.30
2018-07-19T14:25:44.815Z,24.20
2018-07-19T14:28:13.720Z,24.30
2018-07-19T14:30:42.469Z,24.40
2018-07-19T14:33:11.416Z,24.50
2018-07-19T14:35:40.494Z,24.60
2018-07-19T14:38:09.294Z,24.70
2018-07-19T14:40:38.055Z,24.80
2018-07-19T14:43:06.856Z,24.90
2018-07-19T14:48:04.107Z,25.00
2018-07-19T14:50:32.815Z,25.00
2018-07-19T14:53:01.587Z,25.10
2018-07-19T14:57:58.863Z,25.20
2018-07-19T15:02:56.139Z,25.20
2018-07-19T15:07:53.532Z,25.30
2018-07-19T15:10:22.279Z,25.30
2018-07-19T15:12:51.019Z,25.20
2018-07-19T15:15:19.809Z,25.30
2018-07-19T15:17:48.590Z,25.30
2018-07-19T15:22:45.844Z,25.30
2018-07-19T15:25:14.597Z,25.30
2018-07-19T15:27:43.424Z,25.30
2018-07-19T15:30:12.174Z,25.20
2018-07-19T15:32:40.971Z,25.20
2018-07-19T15:35:09.714Z,25.20
2018-07-19T15:37:38.481Z,25.30
2018-07-19T15:42:35.866Z,25.30
2018-07-19T15:45:05.292Z,25.30
2018-07-19T15:47:34.269Z,25.30
2018-07-19T15:50:03.044Z,25.30
2018-07-19T15:52:31.775Z,25.30
2018-07-19T15:55:00.822Z,25.20
2018-07-19T15:57:29.576Z,25.30
2018-07-19T15:59:58.321Z,25.30
2018-07-19T16:02:27.054Z,25.30
2018-07-19T16:04:55.861Z,25.30
2018-07-19T16:07:24.625Z,25.30
2018-07-19T16:09:53.376Z,25.30
2018-07-19T16:12:22.120Z,25.20
2018-07-19T16:19:47.882Z,25.20
2018-07-19T16:22:17.166Z,25.10
2018-07-19T16:24:46.088Z,25.10
2018-07-19T16:27:14.811Z,25.20
2018-07-19T16:29:43.655Z,25.30
2018-07-19T16:34:40.927Z,25.30
2018-07-19T16:37:09.716Z,25.30
2018-07-19T16:39:38.530Z,25.40
2018-07-19T16:44:35.724Z,25.50
2018-07-19T16:47:04.687Z,25.60
2018-07-19T16:49:33.507Z,25.60
2018-07-19T16:52:02.264Z,25.60
2018-07-19T16:54:31.006Z,25.60
2018-07-19T16:56:59.765Z,25.60
2018-07-19T16:59:28.535Z,25.70
2018-07-19T17:01:57.310Z,25.70
2018-07-19T17:04:26.112Z,25.70
2018-07-19T17:06:55.061Z,25.70
2018-07-19T17:09:23.803Z,25.80
2018-07-19T17:11:52.592Z,25.80
2018-07-19T17:14:21.284Z,25.90
2018-07-19T17:16:50.065Z,26.10
2018-07-19T17:19:18.837Z,26.40
2018-07-19T17:21:47.591Z,26.50
2018-07-19T17:24:16.327Z,26.50
2018-07-19T17:26:45.114Z,26.30
2018-07-19T17:29:13.959Z,26.20
2018-07-19T17:31:42.761Z,26.10
2018-07-19T17:36:39.963Z,26.10
2018-07-19T17:39:10.597Z,26.20
2018-07-19T17:41:39.395Z,26.20
2018-07-19T17:44:08.147Z,26.20
2018-07-19T17:46:36.910Z,26.10
2018-07-19T17:49:06.148Z,25.90
2018-07-19T17:51:35.111Z,25.80
2018-07-19T17:54:03.895Z,25.80
2018-07-19T17:56:32.695Z,25.80
2018-07-19T17:59:01.534Z,25.80
2018-07-19T18:01:30.349Z,25.70
2018-07-19T18:03:59.179Z,25.60
2018-07-19T18:06:28.112Z,25.50
2018-07-19T18:08:56.851Z,25.40
2018-07-19T18:11:25.739Z,25.40
2018-07-19T18:16:22.952Z,25.40
2018-07-19T18:18:51.773Z,25.30
2018-07-19T18:21:20.821Z,25.30
2018-07-19T18:23:49.611Z,25.20
2018-07-19T18:26:18.422Z,25.20
2018-07-19T18:28:47.173Z,25.10
2018-07-19T18:31:15.973Z,25.10
2018-07-19T18:33:44.751Z,25.10
2018-07-19T18:36:13.495Z,25.10
2018-07-19T18:38:42.308Z,25.10
2018-07-19T18:43:39.559Z,25.00
2018-07-19T18:46:08.312Z,25.10
2018-07-19T18:48:37.182Z,25.00
2018-07-19T18:51:05.985Z,25.00
2018-07-19T18:53:34.856Z,24.90
2018-07-19T18:56:03.616Z,24.80
2018-07-19T18:58:32.466Z,24.80
2018-07-19T19:01:01.195Z,24.70
2018-07-19T19:03:29.968Z,24.70
2018-07-19T19:05:58.692Z,24.70
2018-07-19T19:08:27.455Z,24.60
2018-07-19T19:10:56.378Z,24.60
2018-07-19T19:13:25.354Z,24.60
2018-07-19T19:23:19.615Z,24.30
2018-07-19T19:25:48.358Z,24.30
2018-07-19T19:28:18.419Z,24.30
2018-07-19T19:33:16.100Z,24.30
2018-07-19T19:35:45.532Z,24.20
2018-07-19T19:38:18.554Z,24.20
2018-07-19T19:40:48.122Z,24.10
2018-07-19T19:45:48.118Z,24.10
2018-07-19T19:48:18.199Z,24.00
2018-07-19T19:50:49.392Z,24.00
2018-07-19T19:53:21.308Z,23.90
2018-07-19T19:55:52.116Z,23.90
2018-07-19T19:58:23.712Z,23.90
2018-07-19T20:03:25.999Z,23.90
2018-07-19T20:06:07.266Z,23.90
2018-07-19T20:08:36.998Z,23.90
2018-07-19T20:11:06.698Z,23.80
2018-07-19T20:16:06.756Z,23.80
2018-07-19T20:21:04.110Z,23.60
2018-07-19T20:23:37.656Z,23.70
2018-07-19T20:26:08.955Z,23.60
2018-07-19T20:28:40.142Z,23.60
2018-07-19T20:31:10.840Z,23.60
2018-07-19T20:33:41.474Z,23.50
2018-07-19T20:36:11.683Z,23.50
2018-07-19T20:38:41.623Z,23.50
2018-07-19T20:41:14.039Z,23.50
2018-07-19T20:43:43.375Z,23.40
2018-07-19T20:46:12.177Z,23.40
2018-07-19T20:48:42.391Z,23.40
2018-07-19T20:51:11.231Z,23.40
2018-07-19T20:53:40.109Z,23.30
2018-07-19T20:56:08.893Z,23.20
2018-07-19T21:01:06.093Z,23.10
2018-07-19T21:03:34.835Z,23.10
2018-07-19T21:08:32.118Z,22.90
2018-07-19T21:11:01.006Z,22.90
2018-07-19T21:15:58.491Z,22.80
2018-07-19T21:18:27.229Z,22.70
2018-07-19T21:20:56.011Z,22.70
2018-07-19T21:23:24.741Z,22.80
2018-07-19T21:30:50.688Z,22.60
2018-07-19T21:35:47.987Z,22.50
2018-07-19T21:38:16.963Z,22.40
2018-07-19T21:40:45.701Z,22.40
2018-07-19T21:43:14.636Z,22.30
2018-07-19T21:45:43.362Z,22.30
2018-07-19T21:48:12.106Z,22.30
2018-07-19T21:53:09.336Z,22.30
2018-07-19T21:55:38.092Z,22.20
2018-07-19T21:58:06.839Z,22.20
2018-07-19T22:00:39.815Z,22.20
2018-07-19T22:03:08.570Z,22.20
2018-07-19T22:05:37.357Z,22.10
2018-07-19T22:08:06.171Z,22.10
2018-07-19T22:10:34.943Z,22.10
2018-07-19T22:13:03.694Z,22.00
2018-07-19T22:18:00.887Z,22.00
2018-07-19T22:20:29.715Z,21.90
2018-07-19T22:22:58.561Z,21.90
2018-07-19T22:25:27.391Z,21.80
2018-07-19T22:27:56.166Z,21.80
2018-07-19T22:30:24.936Z,21.70
2018-07-19T22:32:53.712Z,21.70
2018-07-19T22:35:22.464Z,21.60
2018-07-19T22:37:51.287Z,21.50
2018-07-19T22:40:20.051Z,21.50
2018-07-19T22:47:45.826Z,21.40
2018-07-19T22:50:14.567Z,21.40
2018-07-19T22:52:43.492Z,21.40
2018-07-19T22:55:12.259Z,21.40
2018-07-19T22:57:41.059Z,21.40
2018-07-19T23:00:09.916Z,21.40
2018-07-19T23:02:38.689Z,21.40
2018-07-19T23:05:07.431Z,21.40
2018-07-19T23:10:05.035Z,21.30
2018-07-19T23:12:33.760Z,21.20
2018-07-19T23:15:02.580Z,21.10
2018-07-19T23:17:31.363Z,21.10
2018-07-19T23:20:00.108Z,21.10
2018-07-19T23:22:28.891Z,21.10
2018-07-19T23:24:57.616Z,21.20
2018-07-19T23:27:26.414Z,21.20
2018-07-19T23:29:56.169Z,21.10
2018-07-19T23:32:24.908Z,21.10
2018-07-19T23:34:53.833Z,21.10
2018-07-19T23:40:00.518Z,21.00
2018-07-19T23:45:05.069Z,21.00
2018-07-19T23:47:35.717Z,20.90
2018-07-19T23:50:04.482Z,20.90
2018-07-19T23:52:33.369Z,20.80
2018-07-19T23:55:02.076Z,20.80
2018-07-19T23:57:30.831Z,20.80
2018-07-19T23:59:59.625Z,20.80
